Wetterdaten: aktuell Freitag, 05.06.2020 20:55
Datum Zeit Temp. 2m Feuchte 2m Luftdruck Regen Wind Richtung Richtung Taupunkt Windchill Windben
05.06.2020 20:55 12,6 C 84 % 1000,3 hPa 0,0 l/m 2,9 km/h W 270 10,0 C 12,6 C 4,3 km/h
05.06.2020 20:50 12,6 C 84 % 999,3 hPa 0,0 l/m 1,4 km/h NW 315 10,0 C 12,6 C 2,2 km/h
05.06.2020 20:45 12,7 C 84 % 999,3 hPa 0,0 l/m 3,6 km/h S-SW 202 10,1 C 12,7 C 4,3 km/h
05.06.2020 20:40 12,7 C 84 % 999,3 hPa 0,3 l/m 2,5 km/h W 270 10,1 C 12,7 C 4,3 km/h
05.06.2020 20:35 12,8 C 84 % 999,3 hPa 0,0 l/m 1,4 km/h W 270 10,2 C 12,8 C 2,2 km/h
05.06.2020 20:30 12,8 C 84 % 999,3 hPa 0,0 l/m 2,9 km/h S 180 10,2 C 12,8 C 6,5 km/h
05.06.2020 20:25 12,8 C 83 % 999,3 hPa 0,3 l/m 1,8 km/h W-NW 292 10,0 C 12,8 C 4,3 km/h
05.06.2020 20:20 12,8 C 83 % 999,3 hPa 0,0 l/m 8,6 km/h W-SW 247 10,0 C 11,4 C 13,3 km/h
05.06.2020 20:15 12,8 C 83 % 999,3 hPa 0,0 l/m 4,7 km/h W 270 10,0 C 12,8 C 6,5 km/h
05.06.2020 20:10 12,8 C 83 % 999,3 hPa 0,0 l/m 7,6 km/h W-NW 292 10,0 C 12,0 C 13,3 km/h
05.06.2020 20:05 12,8 C 82 % 999,3 hPa 0,5 l/m 11,9 km/h W-NW 292 9,8 C 9,8 C 15,5 km/h
05.06.2020 20:00 13,0 C 82 % 999,3 hPa 0,0 l/m 7,6 km/h N-NW 337 10,0 C 12,2 C 11,2 km/h
05.06.2020 19:55 13,2 C 82 % 999,3 hPa 0,5 l/m 14,4 km/h W 270 10,2 C 9,2 C 17,6 km/h
05.06.2020 19:50 13,6 C 83 % 999,2 hPa 1,3 l/m 15,5 km/h N-NW 337 10,8 C 9,3 C 22,0 km/h
05.06.2020 19:45 13,8 C 83 % 999,2 hPa 0,3 l/m 7,9 km/h NW 315 11,0 C 12,9 C 11,2 km/h
05.06.2020 19:40 13,9 C 83 % 999,2 hPa 0,3 l/m 7,6 km/h W 270 11,1 C 13,2 C 8,6 km/h
05.06.2020 19:35 14,0 C 82 % 998,2 hPa 0,3 l/m 14,4 km/h SW 225 11,0 C 10,2 C 17,6 km/h
05.06.2020 19:30 14,0 C 82 % 998,2 hPa 0,3 l/m 8,3 km/h SO 135 11,0 C 12,9 C 17,6 km/h
05.06.2020 19:25 14,1 C 81 % 998,2 hPa 0,0 l/m 10,8 km/h SW 225 10,9 C 11,8 C 17,6 km/h
05.06.2020 19:20 14,2 C 81 % 998,2 hPa 0,0 l/m 7,6 km/h S-SW 202 11,0 C 13,5 C 22,0 km/h
05.06.2020 19:15 14,2 C 81 % 998,2 hPa 0,0 l/m 16,9 km/h W-SW 247 11,0 C 9,6 C 24,1 km/h
05.06.2020 19:10 14,2 C 81 % 998,2 hPa 0,3 l/m 9,4 km/h W 270 11,0 C 12,5 C 31,0 km/h
05.06.2020 19:05 14,3 C 81 % 998,2 hPa 0,0 l/m 7,2 km/h S-SW 202 11,1 C 13,8 C 11,2 km/h
05.06.2020 19:00 14,3 C 81 % 998,2 hPa 0,0 l/m 14,4 km/h W-SW 247 11,1 C 10,6 C 19,8 km/h
05.06.2020 18:55 14,3 C 81 % 998,2 hPa 0,0 l/m 4,0 km/h SW 225 11,1 C 14,3 C 6,5 km/h
05.06.2020 18:50 14,4 C 81 % 998,2 hPa 0,0 l/m 6,5 km/h SW 225 11,2 C 14,4 C 17,6 km/h
05.06.2020 18:45 14,4 C 81 % 998,2 hPa 0,0 l/m 10,4 km/h S 180 11,2 C 12,3 C 24,1 km/h
05.06.2020 18:40 14,4 C 81 % 998,2 hPa 0,0 l/m 6,5 km/h SW 225 11,2 C 14,4 C 8,6 km/h
05.06.2020 18:35 14,3 C 81 % 998,2 hPa 0,0 l/m 6,5 km/h W-SW 247 11,1 C 14,3 C 13,3 km/h
05.06.2020 18:30 14,3 C 81 % 998,2 hPa 0,0 l/m 4,7 km/h W-SW 247 11,1 C 14,3 C 6,5 km/h
05.06.2020 18:25 14,3 C 81 % 998,2 hPa 0,0 l/m 6,5 km/h SO 135 11,1 C 14,3 C 13,3 km/h
05.06.2020 18:20 14,2 C 81 % 998,2 hPa 0,0 l/m 7,9 km/h W-SW 247 11,0 C 13,3 C 13,3 km/h
05.06.2020 18:15 14,2 C 81 % 998,2 hPa 0,0 l/m 11,2 km/h S 180 11,0 C 11,7 C 19,8 km/h
05.06.2020 18:10 14,2 C 81 % 998,2 hPa 0,0 l/m 15,5 km/h S-SW 202 11,0 C 10,1 C 22,0 km/h
05.06.2020 18:05 14,2 C 81 % 998,2 hPa 0,0 l/m 9,0 km/h W-SW 247 11,0 C 12,7 C 13,3 km/h
05.06.2020 18:00 14,1 C 81 % 998,2 hPa 0,0 l/m 11,5 km/h S-SO 157 10,9 C 11,4 C 15,5 km/h
05.06.2020 17:55 14,0 C 81 % 998,2 hPa 0,0 l/m 10,1 km/h W 270 10,8 C 12,0 C 13,3 km/h
05.06.2020 17:50 14,0 C 81 % 998,2 hPa 0,0 l/m 5,8 km/h S 180 10,8 C 14,0 C 19,8 km/h
05.06.2020 17:45 14,0 C 81 % 998,2 hPa 0,0 l/m 10,1 km/h S 180 10,8 C 12,0 C 17,6 km/h
05.06.2020 17:40 13,9 C 80 % 998,2 hPa 0,0 l/m 4,3 km/h S-SW 202 10,5 C 13,9 C 6,5 km/h
05.06.2020 17:35 13,9 C 80 % 998,2 hPa 0,0 l/m 8,6 km/h S 180 10,5 C 12,6 C 15,5 km/h
05.06.2020 17:30 13,8 C 79 % 998,2 hPa 0,0 l/m 8,6 km/h SW 225 10,2 C 12,5 C 17,6 km/h
05.06.2020 17:25 13,9 C 78 % 998,2 hPa 0,0 l/m 7,2 km/h S-SW 202 10,1 C 13,4 C 17,6 km/h
05.06.2020 17:20 14,0 C 77 % 998,2 hPa 0,0 l/m 10,8 km/h W 270 10,0 C 11,6 C 15,5 km/h
05.06.2020 17:15 14,1 C 76 % 998,2 hPa 0,0 l/m 9,4 km/h W-SW 247 9,9 C 12,4 C 13,3 km/h
05.06.2020 17:10 14,4 C 76 % 998,2 hPa 0,3 l/m 11,2 km/h SW 225 10,2 C 11,9 C 17,6 km/h
05.06.2020 17:05 14,5 C 74 % 998,2 hPa 0,0 l/m 22,0 km/h W-SW 247 9,9 C 8,6 C 31,0 km/h
05.06.2020 17:00 14,7 C 73 % 998,2 hPa 0,0 l/m 7,9 km/h S-SW 202 9,9 C 13,8 C 13,3 km/h
05.06.2020 16:55 14,9 C 72 % 998,2 hPa 0,0 l/m 19,4 km/h SW 225 9,9 C 9,8 C 26,3 km/h
05.06.2020 16:50 15,0 C 71 % 998,2 hPa 0,0 l/m 7,6 km/h W-SW 247 9,8 C 14,3 C 13,3 km/h
05.06.2020 16:45 15,1 C 70 % 998,2 hPa 0,0 l/m 18,4 km/h S-SW 202 9,7 C 10,3 C 26,3 km/h
05.06.2020 16:40 15,2 C 69 % 998,1 hPa 0,0 l/m 14,8 km/h SW 225 9,6 C 11,5 C 26,3 km/h
05.06.2020 16:35 15,4 C 69 % 998,1 hPa 0,0 l/m 10,1 km/h SW 225 9,7 C 13,5 C 19,8 km/h
05.06.2020 16:30 15,6 C 68 % 998,1 hPa 0,0 l/m 15,5 km/h W-SW 247 9,7 C 11,8 C 24,1 km/h
05.06.2020 16:25 15,6 C 68 % 998,1 hPa 0,0 l/m 10,8 km/h W-SW 247 9,7 C 13,4 C 15,5 km/h
05.06.2020 16:20 15,6 C 68 % 998,1 hPa 0,0 l/m 9,7 km/h SW 225 9,7 C 13,9 C 17,6 km/h
05.06.2020 16:15 15,5 C 67 % 998,1 hPa 0,0 l/m 11,2 km/h SW 225 9,4 C 13,2 C 19,8 km/h
05.06.2020 16:10 15,5 C 68 % 998,1 hPa 0,0 l/m 7,2 km/h SO 135 9,6 C 15,1 C 11,2 km/h
05.06.2020 16:05 15,4 C 68 % 998,1 hPa 0,0 l/m 13,7 km/h S 180 9,5 C 12,1 C 17,6 km/h
05.06.2020 16:00 15,3 C 68 % 998,1 hPa 0,0 l/m 5,0 km/h S-SW 202 9,4 C 15,3 C 8,6 km/h
05.06.2020 15:55 15,3 C 69 % 998,1 hPa 0,0 l/m 4,3 km/h SW 225 9,6 C 15,3 C 6,5 km/h
05.06.2020 15:50 15,4 C 68 % 998,1 hPa 0,0 l/m 6,1 km/h W-SW 247 9,5 C 15,4 C 11,2 km/h
05.06.2020 15:45 15,4 C 68 % 998,1 hPa 0,0 l/m 15,1 km/h SW 225 9,5 C 11,6 C 24,1 km/h
05.06.2020 15:40 15,4 C 69 % 998,1 hPa 0,0 l/m 9,0 km/h S-SW 202 9,7 C 14,0 C 13,3 km/h
05.06.2020 15:35 15,3 C 69 % 998,1 hPa 0,0 l/m 4,3 km/h S-SW 202 9,6 C 15,3 C 8,6 km/h
05.06.2020 15:30 15,2 C 69 % 998,1 hPa 0,0 l/m 15,5 km/h SW 225 9,6 C 11,3 C 19,8 km/h
05.06.2020 15:25 15,2 C 68 % 998,1 hPa 0,0 l/m 14,8 km/h W-SW 247 9,3 C 11,5 C 24,1 km/h
05.06.2020 15:20 15,2 C 69 % 998,1 hPa 0,0 l/m 18,0 km/h W 270 9,6 C 10,5 C 26,3 km/h
05.06.2020 15:15 15,2 C 70 % 998,1 hPa 0,0 l/m 9,7 km/h S-SW 202 9,8 C 13,5 C 13,3 km/h
05.06.2020 15:10 15,1 C 70 % 998,2 hPa 0,0 l/m 6,1 km/h S-SW 202 9,7 C 15,1 C 8,6 km/h
05.06.2020 15:05 15,1 C 70 % 998,2 hPa 0,0 l/m 9,0 km/h SW 225 9,7 C 13,7 C 11,2 km/h
05.06.2020 15:00 15,1 C 70 % 998,2 hPa 0,0 l/m 10,1 km/h S-SO 157 9,7 C 13,2 C 13,3 km/h
05.06.2020 14:55 15,2 C 70 % 998,1 hPa 0,0 l/m 7,6 km/h S-SW 202 9,8 C 14,5 C 13,3 km/h
05.06.2020 14:50 15,2 C 70 % 998,1 hPa 0,0 l/m 10,1 km/h W-SW 247 9,8 C 13,3 C 15,5 km/h
05.06.2020 14:45 15,2 C 70 % 998,1 hPa 0,0 l/m 11,2 km/h W 270 9,8 C 12,8 C 17,6 km/h
05.06.2020 14:40 15,3 C 71 % 998,1 hPa 0,0 l/m 10,1 km/h SW 225 10,1 C 13,4 C 15,5 km/h
05.06.2020 14:35 15,3 C 70 % 998,1 hPa 0,0 l/m 11,5 km/h S 180 9,9 C 12,8 C 15,5 km/h
05.06.2020 14:30 15,2 C 71 % 998,1 hPa 0,0 l/m 20,9 km/h SW 225 10,0 C 9,8 C 26,3 km/h
05.06.2020 14:25 15,2 C 72 % 998,1 hPa 0,0 l/m 11,2 km/h SW 225 10,2 C 12,8 C 17,6 km/h
05.06.2020 14:20 15,2 C 73 % 998,1 hPa 0,0 l/m 6,5 km/h SW 225 10,4 C 15,2 C 8,6 km/h
05.06.2020 14:15 15,2 C 73 % 998,1 hPa 0,0 l/m 6,5 km/h SO 135 10,4 C 15,2 C 13,3 km/h
05.06.2020 14:10 15,2 C 72 % 998,1 hPa 0,0 l/m 11,5 km/h S-SW 202 10,2 C 12,7 C 19,8 km/h
05.06.2020 14:05 15,2 C 74 % 998,1 hPa 0,0 l/m 13,3 km/h W-SW 247 10,6 C 12,0 C 22,0 km/h
05.06.2020 14:00 15,0 C 75 % 999,2 hPa 0,0 l/m 5,8 km/h SW 225 10,6 C 15,0 C 11,2 km/h
05.06.2020 13:55 14,7 C 77 % 999,2 hPa 0,0 l/m 15,5 km/h W-NW 292 10,7 C 10,7 C 22,0 km/h
05.06.2020 13:50 14,6 C 78 % 999,2 hPa 0,0 l/m 9,0 km/h S-SW 202 10,8 C 13,2 C 19,8 km/h
05.06.2020 13:45 14,4 C 79 % 999,2 hPa 0,0 l/m 9,4 km/h W-SW 247 10,8 C 12,7 C 15,5 km/h
05.06.2020 13:40 14,1 C 81 % 999,2 hPa 0,0 l/m 7,9 km/h S-SO 157 10,9 C 13,2 C 17,6 km/h
05.06.2020 13:35 14,0 C 82 % 999,2 hPa 0,0 l/m 14,8 km/h SW 225 11,0 C 10,1 C 17,6 km/h
05.06.2020 13:30 13,8 C 83 % 999,2 hPa 0,0 l/m 8,3 km/h W-SW 247 11,0 C 12,7 C 11,2 km/h
05.06.2020 13:25 13,5 C 82 % 999,2 hPa 0,0 l/m 2,5 km/h S 180 10,5 C 13,5 C 8,6 km/h
05.06.2020 13:20 13,2 C 82 % 999,3 hPa 0,0 l/m 5,4 km/h S 180 10,2 C 13,2 C 13,3 km/h
05.06.2020 13:15 13,0 C 82 % 999,3 hPa 0,0 l/m 5,4 km/h W-SW 247 10,0 C 13,0 C 8,6 km/h
05.06.2020 13:10 12,9 C 82 % 999,3 hPa 0,0 l/m 6,5 km/h SW 225 9,9 C 12,9 C 8,6 km/h
05.06.2020 13:05 12,8 C 82 % 999,3 hPa 0,0 l/m 11,5 km/h S 180 9,8 C 10,0 C 15,5 km/h
05.06.2020 13:00 12,8 C 82 % 999,3 hPa 0,0 l/m 6,5 km/h S-SW 202 9,8 C 12,8 C 11,2 km/h
05.06.2020 12:55 12,8 C 82 % 999,3 hPa 0,0 l/m 9,4 km/h S-SW 202 9,8 C 11,0 C 11,2 km/h
05.06.2020 12:50 12,8 C 82 % 999,3 hPa 0,3 l/m 6,1 km/h S-SW 202 9,8 C 12,8 C 11,2 km/h
05.06.2020 12:45 12,8 C 81 % 999,3 hPa 0,0 l/m 5,0 km/h S 180 9,6 C 12,8 C 11,2 km/h
05.06.2020 12:40 12,8 C 81 % 999,3 hPa 0,0 l/m 4,0 km/h SO 135 9,6 C 12,8 C 8,6 km/h
05.06.2020 12:35 12,8 C 80 % 999,3 hPa 0,0 l/m 7,6 km/h S-SW 202 9,4 C 12,0 C 8,6 km/h
05.06.2020 12:30 12,8 C 80 % 999,3 hPa 0,3 l/m 4,0 km/h O-NO 67 9,4 C 12,8 C 11,2 km/h
05.06.2020 12:25 12,9 C 79 % 999,3 hPa 0,0 l/m 9,0 km/h SW 225 9,3 C 11,3 C 13,3 km/h
05.06.2020 12:20 13,0 C 79 % 999,3 hPa 0,3 l/m 7,2 km/h W-SW 247 9,4 C 12,5 C 8,6 km/h
05.06.2020 12:15 13,2 C 79 % 999,3 hPa 0,0 l/m 8,6 km/h S 180 9,6 C 11,9 C 11,2 km/h
05.06.2020 12:10 13,3 C 79 % 999,2 hPa 0,0 l/m 7,9 km/h O-SO 112 9,7 C 12,4 C 13,3 km/h
05.06.2020 12:05 13,4 C 78 % 999,2 hPa 0,3 l/m 7,2 km/h S 180 9,6 C 12,9 C 11,2 km/h
05.06.2020 12:00 13,6 C 77 % 999,2 hPa 0,0 l/m 4,7 km/h S-SW 202 9,6 C 13,6 C 11,2 km/h
05.06.2020 11:55 13,9 C 77 % 999,2 hPa 0,0 l/m 10,1 km/h S-SO 157 9,9 C 11,9 C 13,3 km/h
05.06.2020 11:50 14,1 C 76 % 999,2 hPa 0,0 l/m 8,6 km/h S 180 9,9 C 12,8 C 15,5 km/h
05.06.2020 11:45 14,3 C 75 % 999,2 hPa 0,0 l/m 7,9 km/h SW 225 9,9 C 13,4 C 11,2 km/h
05.06.2020 11:40 14,4 C 74 % 999,2 hPa 0,0 l/m 15,1 km/h SW 225 9,8 C 10,4 C 17,6 km/h
05.06.2020 11:35 14,4 C 73 % 999,2 hPa 0,0 l/m 3,2 km/h SW 225 9,6 C 14,4 C 6,5 km/h
05.06.2020 11:30 14,3 C 73 % 999,2 hPa 0,0 l/m 6,1 km/h W 270 9,5 C 14,3 C 8,6 km/h
05.06.2020 11:25 14,2 C 73 % 999,2 hPa 0,0 l/m 5,4 km/h W 270 9,4 C 14,2 C 8,6 km/h
05.06.2020 11:20 14,2 C 73 % 999,2 hPa 0,0 l/m 6,5 km/h S-SW 202 9,4 C 14,2 C 6,5 km/h
05.06.2020 11:15 14,2 C 74 % 999,2 hPa 0,0 l/m 9,4 km/h W-SW 247 9,6 C 12,5 C 17,6 km/h
05.06.2020 11:10 14,0 C 74 % 999,2 hPa 0,0 l/m 5,8 km/h S-SW 202 9,4 C 14,0 C 11,2 km/h
05.06.2020 11:05 14,0 C 74 % 999,2 hPa 0,0 l/m 8,6 km/h S 180 9,4 C 12,7 C 13,3 km/h
05.06.2020 11:00 13,9 C 74 % 999,2 hPa 0,0 l/m 2,9 km/h S-SW 202 9,3 C 13,9 C 6,5 km/h
05.06.2020 10:55 13,9 C 73 % 999,2 hPa 0,0 l/m 6,5 km/h SW 225 9,1 C 13,9 C 8,6 km/h
05.06.2020 10:50 14,0 C 73 % 999,2 hPa 0,0 l/m 6,5 km/h W-SW 247 9,2 C 14,0 C 8,6 km/h
05.06.2020 10:45 14,1 C 73 % 999,2 hPa 0,0 l/m 7,6 km/h S-SW 202 9,3 C 13,4 C 11,2 km/h
05.06.2020 10:40 14,2 C 73 % 999,2 hPa 0,0 l/m 6,1 km/h S-SW 202 9,4 C 14,2 C 13,3 km/h
05.06.2020 10:35 14,2 C 73 % 999,2 hPa 0,0 l/m 2,5 km/h W-NW 292 9,4 C 14,2 C 8,6 km/h
05.06.2020 10:30 14,3 C 73 % 999,2 hPa 0,0 l/m 8,3 km/h S-SW 202 9,5 C 13,2 C 13,3 km/h
05.06.2020 10:25 14,2 C 73 % 999,2 hPa 0,0 l/m 4,3 km/h S-SW 202 9,4 C 14,2 C 4,3 km/h
05.06.2020 10:20 14,1 C 74 % 999,2 hPa 0,0 l/m 7,6 km/h S-SW 202 9,5 C 13,4 C 11,2 km/h
05.06.2020 10:15 13,9 C 75 % 999,2 hPa 0,0 l/m 5,8 km/h NW 315 9,5 C 13,9 C 8,6 km/h
05.06.2020 10:10 13,7 C 76 % 999,2 hPa 0,0 l/m 6,8 km/h SW 225 9,5 C 13,5 C 8,6 km/h
05.06.2020 10:05 13,6 C 76 % 999,2 hPa 0,0 l/m 4,3 km/h W-SW 247 9,4 C 13,6 C 8,6 km/h
05.06.2020 10:00 13,5 C 76 % 999,2 hPa 0,0 l/m 6,8 km/h S 180 9,4 C 13,3 C 11,2 km/h
05.06.2020 09:55 13,3 C 76 % 999,2 hPa 0,0 l/m 2,9 km/h W 270 9,2 C 13,3 C 4,3 km/h
05.06.2020 09:50 13,2 C 77 % 999,3 hPa 0,0 l/m 3,6 km/h SW 225 9,3 C 13,2 C 6,5 km/h
05.06.2020 09:45 13,3 C 78 % 999,2 hPa 0,0 l/m 1,1 km/h W-SW 247 9,5 C 13,3 C 2,2 km/h
05.06.2020 09:40 13,3 C 78 % 999,2 hPa 0,0 l/m 7,6 km/h W-SW 247 9,5 C 12,6 C 11,2 km/h
05.06.2020 09:35 13,3 C 79 % 1000,3 hPa 0,0 l/m 4,0 km/h W 270 9,7 C 13,3 C 6,5 km/h
05.06.2020 09:30 13,2 C 79 % 1000,3 hPa 0,0 l/m 3,2 km/h SW 225 9,6 C 13,2 C 6,5 km/h
05.06.2020 09:25 13,1 C 80 % 1000,3 hPa 0,0 l/m 5,8 km/h W-SW 247 9,7 C 13,1 C 6,5 km/h
05.06.2020 09:20 13,0 C 78 % 1000,3 hPa 0,0 l/m 9,0 km/h W-NW 292 9,3 C 11,4 C 11,2 km/h
05.06.2020 09:15 12,9 C 79 % 1000,3 hPa 0,0 l/m 4,0 km/h SW 225 9,3 C 12,9 C 8,6 km/h
05.06.2020 09:10 12,8 C 79 % 999,3 hPa 0,0 l/m 3,2 km/h W-NW 292 9,2 C 12,8 C 6,5 km/h
05.06.2020 09:05 12,8 C 79 % 999,3 hPa 0,0 l/m 5,0 km/h W-NW 292 9,2 C 12,8 C 6,5 km/h
05.06.2020 09:00 12,8 C 79 % 1000,3 hPa 0,0 l/m 2,2 km/h W-SW 247 9,2 C 12,8 C 4,3 km/h
05.06.2020 08:55 12,8 C 79 % 999,3 hPa 0,0 l/m 3,2 km/h S-SW 202 9,2 C 12,8 C 4,3 km/h
05.06.2020 08:50 12,9 C 79 % 999,3 hPa 0,0 l/m 6,1 km/h W-NW 292 9,3 C 12,9 C 8,6 km/h
05.06.2020 08:45 13,0 C 80 % 999,3 hPa 0,0 l/m 2,5 km/h N-NW 337 9,6 C 13,0 C 6,5 km/h
05.06.2020 08:40 13,0 C 80 % 1000,3 hPa 0,0 l/m 4,7 km/h S-SW 202 9,6 C 13,0 C 8,6 km/h
05.06.2020 08:35 13,0 C 81 % 999,3 hPa 0,0 l/m 2,9 km/h W 270 9,8 C 13,0 C 6,5 km/h
05.06.2020 08:30 13,0 C 81 % 999,3 hPa 0,0 l/m 4,3 km/h NW 315 9,8 C 13,0 C 8,6 km/h
05.06.2020 08:25 12,9 C 81 % 999,3 hPa 0,0 l/m 2,2 km/h NW 315 9,7 C 12,9 C 4,3 km/h
05.06.2020 08:20 12,8 C 82 % 999,3 hPa 0,0 l/m 2,5 km/h NW 315 9,8 C 12,8 C 4,3 km/h
05.06.2020 08:15 12,6 C 82 % 999,3 hPa 0,0 l/m 3,2 km/h NW 315 9,6 C 12,6 C 4,3 km/h
05.06.2020 08:10 12,5 C 82 % 1000,3 hPa 0,0 l/m 2,9 km/h W-NW 292 9,5 C 12,5 C 4,3 km/h
05.06.2020 08:05 12,4 C 82 % 999,3 hPa 0,0 l/m 2,2 km/h NW 315 9,4 C 12,4 C 4,3 km/h
05.06.2020 08:00 12,4 C 82 % 1000,3 hPa 0,0 l/m 1,1 km/h W-NW 292 9,4 C 12,4 C 4,3 km/h
05.06.2020 07:55 12,4 C 82 % 999,3 hPa 0,0 l/m 3,2 km/h NW 315 9,4 C 12,4 C 4,3 km/h
05.06.2020 07:50 12,4 C 83 % 999,3 hPa 0,0 l/m 1,8 km/h N-NW 337 9,6 C 12,4 C 2,2 km/h
05.06.2020 07:45 12,4 C 83 % 999,3 hPa 0,3 l/m 1,8 km/h NW 315 9,6 C 12,4 C 2,2 km/h
05.06.2020 07:40 12,4 C 84 % 999,3 hPa 0,0 l/m 2,2 km/h NW 315 9,8 C 12,4 C 4,3 km/h
05.06.2020 07:35 12,4 C 84 % 999,3 hPa 0,0 l/m 2,5 km/h W-NW 292 9,8 C 12,4 C 6,5 km/h
05.06.2020 07:30 12,4 C 84 % 999,3 hPa 0,0 l/m 5,0 km/h W-NW 292 9,8 C 12,4 C 6,5 km/h
05.06.2020 07:25 12,4 C 84 % 999,3 hPa 0,0 l/m 2,9 km/h W-NW 292 9,8 C 12,4 C 4,3 km/h
05.06.2020 07:20 12,4 C 84 % 999,3 hPa 0,0 l/m 0,7 km/h W-NW 292 9,8 C 12,4 C 2,2 km/h
05.06.2020 07:15 12,4 C 84 % 999,3 hPa 0,0 l/m 0,7 km/h W 270 9,8 C 12,4 C 2,2 km/h
05.06.2020 07:10 12,3 C 84 % 999,3 hPa 0,0 l/m 0,7 km/h W 270 9,7 C 12,3 C 2,2 km/h
05.06.2020 07:05 12,3 C 84 % 999,3 hPa 0,0 l/m 2,2 km/h NW 315 9,7 C 12,3 C 4,3 km/h
05.06.2020 07:00 12,3 C 84 % 999,3 hPa 0,0 l/m 4,3 km/h W 270 9,7 C 12,3 C 6,5 km/h
05.06.2020 06:55 12,3 C 85 % 999,3 hPa 0,0 l/m 2,9 km/h W-NW 292 9,9 C 12,3 C 4,3 km/h
05.06.2020 06:50 12,3 C 85 % 999,3 hPa 0,0 l/m 2,9 km/h W-SW 247 9,9 C 12,3 C 4,3 km/h
05.06.2020 06:45 12,2 C 85 % 999,3 hPa 0,0 l/m 1,1 km/h W-NW 292 9,8 C 12,2 C 2,2 km/h
05.06.2020 06:40 12,3 C 85 % 999,3 hPa 0,0 l/m 1,1 km/h W-NW 292 9,9 C 12,3 C 4,3 km/h
05.06.2020 06:35 12,3 C 85 % 999,3 hPa 0,0 l/m 4,7 km/h W-NW 292 9,9 C 12,3 C 6,5 km/h
05.06.2020 06:30 12,2 C 85 % 999,3 hPa 0,0 l/m 2,9 km/h W-NW 292 9,8 C 12,2 C 4,3 km/h
05.06.2020 06:25 12,2 C 85 % 999,3 hPa 0,0 l/m 2,2 km/h W-NW 292 9,8 C 12,2 C 4,3 km/h
05.06.2020 06:20 12,3 C 85 % 999,3 hPa 0,0 l/m 4,0 km/h NW 315 9,9 C 12,3 C 4,3 km/h
05.06.2020 06:15 12,3 C 85 % 999,3 hPa 0,0 l/m 2,9 km/h W-NW 292 9,9 C 12,3 C 4,3 km/h
05.06.2020 06:10 12,3 C 85 % 999,3 hPa 0,0 l/m 5,0 km/h W 270 9,9 C 12,3 C 6,5 km/h
05.06.2020 06:05 12,3 C 85 % 999,3 hPa 0,0 l/m 4,3 km/h W-NW 292 9,9 C 12,3 C 6,5 km/h
05.06.2020 06:00 12,3 C 85 % 999,3 hPa 0,0 l/m 1,8 km/h W 270 9,9 C 12,3 C 4,3 km/h
05.06.2020 05:55 12,2 C 85 % 999,3 hPa 0,0 l/m 3,2 km/h W 270 9,8 C 12,2 C 4,3 km/h
05.06.2020 05:50 12,2 C 85 % 999,3 hPa 0,0 l/m 4,0 km/h NW 315 9,8 C 12,2 C 6,5 km/h
05.06.2020 05:45 12,1 C 85 % 999,3 hPa 0,0 l/m 1,1 km/h W-NW 292 9,7 C 12,1 C 2,2 km/h
05.06.2020 05:40 12,1 C 85 % 999,3 hPa 0,0 l/m 0,7 km/h NW 315 9,7 C 12,1 C 4,3 km/h
05.06.2020 05:35 12,1 C 85 % 999,3 hPa 0,0 l/m 0,7 km/h W 270 9,7 C 12,1 C 2,2 km/h
05.06.2020 05:30 12,1 C 85 % 999,3 hPa 0,0 l/m 1,8 km/h SW 225 9,7 C 12,1 C 4,3 km/h
05.06.2020 05:25 12,2 C 85 % 999,3 hPa 0,0 l/m 0,7 km/h SW 225 9,8 C 12,2 C 2,2 km/h
05.06.2020 05:20 12,2 C 85 % 999,3 hPa 0,0 l/m 0,4 km/h W-SW 247 9,8 C 12,2 C 2,2 km/h
05.06.2020 05:15 12,3 C 85 % 998,3 hPa 0,0 l/m 0,0 km/h SW 225 9,9 C 12,3 C 2,2 km/h
05.06.2020 05:10 12,3 C 85 % 998,3 hPa 0,0 l/m 0,7 km/h N-NW 337 9,9 C 12,3 C 2,2 km/h
05.06.2020 05:05 12,4 C 85 % 998,3 hPa 0,0 l/m 0,7 km/h W-SW 247 9,9 C 12,4 C 2,2 km/h
05.06.2020 05:00 12,4 C 86 % 998,3 hPa 0,0 l/m 1,8 km/h W 270 10,1 C 12,4 C 4,3 km/h
05.06.2020 04:55 12,4 C 86 % 998,3 hPa 0,0 l/m 0,7 km/h W-NW 292 10,1 C 12,4 C 4,3 km/h
05.06.2020 04:50 12,4 C 86 % 998,3 hPa 0,0 l/m 1,8 km/h W-NW 292 10,1 C 12,4 C 2,2 km/h
05.06.2020 04:45 12,4 C 86 % 998,3 hPa 0,0 l/m 2,5 km/h W 270 10,1 C 12,4 C 4,3 km/h
05.06.2020 04:40 12,4 C 86 % 998,3 hPa 0,0 l/m 2,2 km/h W-NW 292 10,1 C 12,4 C 4,3 km/h
05.06.2020 04:35 12,4 C 86 % 998,3 hPa 0,0 l/m 2,5 km/h SW 225 10,1 C 12,4 C 4,3 km/h
05.06.2020 04:30 12,4 C 86 % 998,3 hPa 0,0 l/m 2,5 km/h W-NW 292 10,1 C 12,4 C 4,3 km/h
05.06.2020 04:25 12,4 C 86 % 998,3 hPa 0,0 l/m 1,8 km/h W-SW 247 10,1 C 12,4 C 4,3 km/h
05.06.2020 04:20 12,5 C 86 % 998,3 hPa 0,0 l/m 2,2 km/h SW 225 10,2 C 12,5 C 4,3 km/h
05.06.2020 04:15 12,5 C 86 % 998,3 hPa 0,0 l/m 0,7 km/h W 270 10,2 C 12,5 C 2,2 km/h
05.06.2020 04:10 12,5 C 86 % 998,3 hPa 0,0 l/m 2,2 km/h W-NW 292 10,2 C 12,5 C 4,3 km/h
05.06.2020 04:05 12,5 C 86 % 998,3 hPa 0,0 l/m 1,8 km/h SW 225 10,2 C 12,5 C 4,3 km/h
05.06.2020 04:00 12,5 C 86 % 998,3 hPa 0,0 l/m 0,7 km/h NW 315 10,2 C 12,5 C 2,2 km/h
05.06.2020 03:55 12,6 C 86 % 998,3 hPa 0,0 l/m 1,4 km/h W 270 10,3 C 12,6 C 4,3 km/h
05.06.2020 03:50 12,6 C 86 % 998,3 hPa 0,0 l/m 1,8 km/h W-SW 247 10,3 C 12,6 C 4,3 km/h
05.06.2020 03:45 12,6 C 86 % 998,3 hPa 0,0 l/m 0,7 km/h W-NW 292 10,3 C 12,6 C 2,2 km/h
05.06.2020 03:40 12,7 C 86 % 998,3 hPa 0,0 l/m 0,4 km/h SW 225 10,4 C 12,7 C 2,2 km/h
05.06.2020 03:35 12,7 C 86 % 998,3 hPa 0,0 l/m 1,8 km/h W 270 10,4 C 12,7 C 2,2 km/h
05.06.2020 03:30 12,7 C 86 % 998,3 hPa 0,0 l/m 0,0 km/h W-NW 292 10,4 C 12,7 C 2,2 km/h
05.06.2020 03:25 12,7 C 86 % 998,3 hPa 0,0 l/m 1,1 km/h W-SW 247 10,4 C 12,7 C 2,2 km/h
05.06.2020 03:20 12,7 C 86 % 998,3 hPa 0,0 l/m 0,0 km/h W-SW 247 10,4 C 12,7 C 0,0 km/h
05.06.2020 03:15 12,7 C 86 % 998,3 hPa 0,0 l/m 1,1 km/h W-SW 247 10,4 C 12,7 C 2,2 km/h
05.06.2020 03:10 12,8 C 86 % 998,3 hPa 0,0 l/m 0,7 km/h W 270 10,5 C 12,8 C 2,2 km/h
05.06.2020 03:05 12,8 C 86 % 998,3 hPa 0,0 l/m 0,4 km/h W 270 10,5 C 12,8 C 2,2 km/h
05.06.2020 03:00 12,8 C 86 % 998,3 hPa 0,0 l/m 1,8 km/h NW 315 10,5 C 12,8 C 2,2 km/h
05.06.2020 02:55 12,8 C 86 % 998,3 hPa 0,0 l/m 2,5 km/h W-NW 292 10,5 C 12,8 C 4,3 km/h
05.06.2020 02:50 12,8 C 86 % 998,3 hPa 0,0 l/m 0,7 km/h W-NW 292 10,5 C 12,8 C 2,2 km/h
05.06.2020 02:45 12,9 C 86 % 998,3 hPa 0,0 l/m 1,1 km/h W-NW 292 10,6 C 12,9 C 2,2 km/h
05.06.2020 02:40 12,9 C 86 % 998,3 hPa 0,0 l/m 0,7 km/h W-NW 292 10,6 C 12,9 C 2,2 km/h
05.06.2020 02:35 12,9 C 86 % 998,3 hPa 0,0 l/m 0,7 km/h NW 315 10,6 C 12,9 C 2,2 km/h
05.06.2020 02:30 12,9 C 86 % 998,3 hPa 0,0 l/m 3,2 km/h W-NW 292 10,6 C 12,9 C 4,3 km/h
05.06.2020 02:25 12,9 C 86 % 998,3 hPa 0,0 l/m 1,8 km/h NW 315 10,6 C 12,9 C 2,2 km/h
05.06.2020 02:20 13,0 C 86 % 998,2 hPa 0,0 l/m 1,8 km/h W 270 10,7 C 13,0 C 2,2 km/h
05.06.2020 02:15 13,0 C 86 % 998,2 hPa 0,0 l/m 1,8 km/h NW 315 10,7 C 13,0 C 4,3 km/h
05.06.2020 02:10 12,9 C 86 % 998,3 hPa 0,0 l/m 0,7 km/h W-NW 292 10,6 C 12,9 C 2,2 km/h
05.06.2020 02:05 12,9 C 86 % 998,3 hPa 0,0 l/m 0,7 km/h W-NW 292 10,6 C 12,9 C 2,2 km/h
05.06.2020 02:00 13,0 C 86 % 998,2 hPa 0,0 l/m 2,9 km/h W-NW 292 10,7 C 13,0 C 4,3 km/h
05.06.2020 01:55 13,0 C 86 % 998,2 hPa 0,0 l/m 1,4 km/h W 270 10,7 C 13,0 C 4,3 km/h
05.06.2020 01:50 13,0 C 86 % 998,2 hPa 0,0 l/m 2,2 km/h W 270 10,7 C 13,0 C 4,3 km/h
05.06.2020 01:45 13,0 C 86 % 998,2 hPa 0,0 l/m 1,1 km/h W 270 10,7 C 13,0 C 2,2 km/h
05.06.2020 01:40 13,0 C 86 % 998,2 hPa 0,0 l/m 1,1 km/h W-SW 247 10,7 C 13,0 C 2,2 km/h
05.06.2020 01:35 13,1 C 86 % 998,2 hPa 0,0 l/m 1,1 km/h W 270 10,8 C 13,1 C 2,2 km/h
05.06.2020 01:30 13,1 C 86 % 998,2 hPa 0,0 l/m 0,7 km/h W-SW 247 10,8 C 13,1 C 2,2 km/h
05.06.2020 01:25 13,1 C 86 % 998,2 hPa 0,0 l/m 0,4 km/h W 270 10,8 C 13,1 C 2,2 km/h
05.06.2020 01:20 13,1 C 86 % 998,2 hPa 0,0 l/m 4,0 km/h W-NW 292 10,8 C 13,1 C 4,3 km/h
05.06.2020 01:15 13,1 C 86 % 998,2 hPa 0,0 l/m 1,4 km/h W 270 10,8 C 13,1 C 2,2 km/h
05.06.2020 01:10 13,2 C 86 % 998,2 hPa 0,0 l/m 1,4 km/h W-SW 247 10,9 C 13,2 C 2,2 km/h
05.06.2020 01:05 13,2 C 86 % 998,2 hPa 0,0 l/m 0,7 km/h W-SW 247 10,9 C 13,2 C 2,2 km/h
05.06.2020 01:00 13,2 C 86 % 998,2 hPa 0,0 l/m 1,8 km/h W 270 10,9 C 13,2 C 2,2 km/h
05.06.2020 00:55 13,2 C 86 % 998,2 hPa 0,0 l/m 1,8 km/h W-NW 292 10,9 C 13,2 C 4,3 km/h
05.06.2020 00:50 13,2 C 86 % 997,2 hPa 0,0 l/m 2,2 km/h W-NW 292 10,9 C 13,2 C 4,3 km/h
05.06.2020 00:45 13,2 C 86 % 998,2 hPa 0,0 l/m 3,2 km/h NW 315 10,9 C 13,2 C 4,3 km/h
05.06.2020 00:40 13,2 C 86 % 997,2 hPa 0,0 l/m 2,2 km/h N 360 10,9 C 13,2 C 4,3 km/h
05.06.2020 00:35 13,2 C 86 % 997,2 hPa 0,0 l/m 1,1 km/h N-NW 337 10,9 C 13,2 C 2,2 km/h
05.06.2020 00:30 13,2 C 86 % 998,2 hPa 0,0 l/m 2,5 km/h W-NW 292 10,9 C 13,2 C 4,3 km/h
05.06.2020 00:25 13,2 C 86 % 998,2 hPa 0,0 l/m 3,2 km/h N 360 10,9 C 13,2 C 4,3 km/h
05.06.2020 00:20 13,2 C 86 % 997,2 hPa 0,0 l/m 1,8 km/h NW 315 10,9 C 13,2 C 4,3 km/h
05.06.2020 00:15 13,2 C 86 % 997,2 hPa 0,0 l/m 1,8 km/h NW 315 10,9 C 13,2 C 4,3 km/h
05.06.2020 00:10 13,2 C 86 % 997,2 hPa 0,0 l/m 0,7 km/h W-NW 292 10,9 C 13,2 C 2,2 km/h
05.06.2020 00:05 13,2 C 87 % 997,2 hPa 0,0 l/m 1,8 km/h NW 315 11,1 C 13,2 C 4,3 km/h
05.06.2020 00:00 13,2 C 87 % 997,2 hPa 0,0 l/m 2,9 km/h N 360 11,1 C 13,2 C 4,3 km/h
04.06.2020 23:55 13,2 C 87 % 997,2 hPa 0,0 l/m 1,4 km/h N-NW 337 11,1 C 13,2 C 2,2 km/h
04.06.2020 23:50 13,2 C 87 % 997,2 hPa 0,0 l/m 1,8 km/h N 360 11,1 C 13,2 C 2,2 km/h
04.06.2020 23:45 13,2 C 87 % 997,2 hPa 0,0 l/m 2,9 km/h N 360 11,1 C 13,2 C 6,5 km/h
04.06.2020 23:40 13,2 C 87 % 997,2 hPa 0,0 l/m 4,7 km/h NW 315 11,1 C 13,2 C 6,5 km/h
04.06.2020 23:35 13,2 C 86 % 997,2 hPa 0,0 l/m 1,4 km/h N 360 10,9 C 13,2 C 2,2 km/h
04.06.2020 23:30 13,2 C 86 % 997,2 hPa 0,0 l/m 2,5 km/h N 360 10,9 C 13,2 C 4,3 km/h
04.06.2020 23:25 13,2 C 86 % 997,2 hPa 0,0 l/m 2,9 km/h N 360 10,9 C 13,2 C 6,5 km/h
04.06.2020 23:20 13,1 C 86 % 997,2 hPa 0,0 l/m 1,8 km/h N-NO 22 10,8 C 13,1 C 2,2 km/h
04.06.2020 23:15 13,1 C 86 % 997,2 hPa 0,0 l/m 2,9 km/h N-NW 337 10,8 C 13,1 C 4,3 km/h
04.06.2020 23:10 13,1 C 86 % 997,2 hPa 0,0 l/m 2,2 km/h N 360 10,8 C 13,1 C 4,3 km/h
04.06.2020 23:05 13,1 C 86 % 997,2 hPa 0,0 l/m 1,8 km/h NW 315 10,8 C 13,1 C 2,2 km/h
04.06.2020 23:00 13,1 C 86 % 997,2 hPa 0,0 l/m 1,1 km/h N-NW 337 10,8 C 13,1 C 4,3 km/h
04.06.2020 22:55 13,1 C 86 % 997,2 hPa 0,0 l/m 1,8 km/h N 360 10,8 C 13,1 C 4,3 km/h
04.06.2020 22:50 13,1 C 86 % 997,2 hPa 0,0 l/m 1,1 km/h NW 315 10,8 C 13,1 C 2,2 km/h
04.06.2020 22:45 13,0 C 85 % 997,2 hPa 0,0 l/m 1,8 km/h NW 315 10,5 C 13,0 C 2,2 km/h
04.06.2020 22:40 13,0 C 85 % 997,2 hPa 0,0 l/m 2,5 km/h W-NW 292 10,5 C 13,0 C 4,3 km/h
04.06.2020 22:35 13,0 C 85 % 997,2 hPa 0,3 l/m 2,2 km/h N-NW 337 10,5 C 13,0 C 4,3 km/h
04.06.2020 22:30 13,0 C 84 % 997,2 hPa 0,3 l/m 1,8 km/h W-NW 292 10,4 C 13,0 C 4,3 km/h
04.06.2020 22:25 13,0 C 84 % 997,2 hPa 0,3 l/m 1,1 km/h N-NW 337 10,4 C 13,0 C 2,2 km/h
04.06.2020 22:20 13,0 C 83 % 996,2 hPa 0,3 l/m 1,1 km/h N-NW 337 10,2 C 13,0 C 2,2 km/h
04.06.2020 22:15 13,2 C 83 % 996,2 hPa 0,3 l/m 2,2 km/h N 360 10,4 C 13,2 C 6,5 km/h
04.06.2020 22:10 13,3 C 82 % 996,2 hPa 0,3 l/m 1,1 km/h N-NW 337 10,3 C 13,3 C 2,2 km/h
04.06.2020 22:05 13,4 C 82 % 996,2 hPa 0,0 l/m 2,9 km/h N-NW 337 10,4 C 13,4 C 4,3 km/h
04.06.2020 22:00 13,6 C 82 % 996,2 hPa 0,0 l/m 3,6 km/h N-NW 337 10,6 C 13,6 C 6,5 km/h
04.06.2020 21:55 13,8 C 82 % 996,2 hPa 0,5 l/m 5,8 km/h N 360 10,8 C 13,8 C 6,5 km/h
04.06.2020 21:50 14,1 C 81 % 996,2 hPa 1,5 l/m 5,4 km/h N 360 10,9 C 14,1 C 11,2 km/h
04.06.2020 21:45 14,4 C 81 % 996,2 hPa 0,8 l/m 4,0 km/h N 360 11,2 C 14,4 C 8,6 km/h
04.06.2020 21:40 14,7 C 83 % 996,1 hPa 0,0 l/m 6,5 km/h N 360 11,8 C 14,7 C 11,2 km/h
04.06.2020 21:35 14,9 C 83 % 996,1 hPa 0,3 l/m 6,5 km/h N 360 12,0 C 14,9 C 8,6 km/h
04.06.2020 21:30 15,1 C 84 % 996,1 hPa 0,0 l/m 2,5 km/h N 360 12,4 C 15,1 C 6,5 km/h
04.06.2020 21:25 15,2 C 84 % 996,1 hPa 0,0 l/m 10,4 km/h NW 315 12,5 C 13,2 C 15,5 km/h
04.06.2020 21:20 15,2 C 84 % 996,1 hPa 0,0 l/m 3,2 km/h N-NW 337 12,5 C 15,2 C 6,5 km/h
04.06.2020 21:15 15,1 C 84 % 995,1 hPa 0,0 l/m 2,9 km/h W-NW 292 12,4 C 15,1 C 4,3 km/h
04.06.2020 21:10 15,1 C 84 % 995,1 hPa 0,0 l/m 2,2 km/h S-SW 202 12,4 C 15,1 C 4,3 km/h
04.06.2020 21:05 15,1 C 84 % 995,1 hPa 0,0 l/m 1,8 km/h S-SW 202 12,4 C 15,1 C 2,2 km/h
04.06.2020 21:00 15,1 C 84 % 995,1 hPa 0,0 l/m 0,4 km/h SO 135 12,4 C 15,1 C 2,2 km/h
_ Min-Zeit 05:45 16:15 21:15 - 05:15 - - 10:55 17:05 03:20
Minimum _ 12,1 C 67 % 995,1 hPa - 0,0 km/h - - 9,1 C 8,6 C 0,0 km/h
_ Max-Zeit 16:30 00:05 08:00 21:50 17:05 - - 21:25 15:50 19:10
Maximum _ 15,6 C 87 % 1000,3 hPa 1,5 l/m 22,0 km/h
W-SW
- - 12,5 C 15,4 C 31,0 km/h
W
Durchschnitt _ 13,6 C 81 % 998,2 hPa #10,3 l/m 4,9 km/h W-NW - 10,4 C 13,0 C 8,2 km/h